Главная страница
METAR-TAF:

METAR-TAF

Аэропорты :

Каструп

Копенгаген, Дания

широта: 55-37N, долгота: 012-39E, высота над уровнем моря: 5 м

Текущие метеонаблюдения

Эта сводка был подготовлена 19 минут назад, в 11:20 UTC
Ветер 2 Узел от северо-восточный
Температура 2°C
Влажность 64%
Давление 1020 hPa
Видимость 10 км и более
Сплошная облачность на высоте 2800 фута

METAR: EKCH 171120Z 04002KT 9999 OVC028 02/M04 Q1020 NOSIG

Время: 12:39 (11:39 UTC)

Прогноз

Эта сводка был подготовлена 45 минут назад, в 10:54 UTC
Прогноз действительный с 17-го 12 UTC до 18-го 12 UTC
Ветер 5 Узел от юго-восточный
Видимость 10 км и более
Рассеянная облачность на высоте 3000 фута
временами
С 18-го 07 UTC до 18-го 12 UTC
Рассеянная облачность на высоте 1000 фута
изменения
С 18-го 10 UTC до 18-го 12 UTC
Ветер 12 Узел от юго-восточный

TAF: EKCH 171054Z 1712/1812 13005KT 9999 BKN030 TEMPO 1807/1812 BKN010 BECMG 1810/1812 14012KT

Метеонаблюдения и прогнозы для более 4000 аэропортов (сводки METAR и TAF).

Имеющиеся станции представлены на карте желтыми и красными точками.

Чтобы увидеть название станции, наведите на нее мышь.

Затем щелкните, чтобы увидеть метеонаблюдения и метеопрогнозы.

Управление картой: чтобы увеличить масштаб, щелкните зеленые кнопки с черным крестиком; чтобы уменьшить масштаб, щелкните зеленую кнопку с тире; для просмотра соседних карт щелкайте зеленые стрелки.


METAR-TAF: